Time;durP1;ratioP1;P1;durP2;ratioP2;P2;SDS_P1;SDS_P2;PMS_P1;PMS_P2;Temp;Humidity;BMP_temperature;BMP_pressure;BME280_temperature;BME280_humidity;BME280_pressure;Samples;Min_cycle;Max_cycle;Signal;HPM_P1;HPM_P2
2023/11/06 00:00:31;;;;;;;;;;;;;;;17.59;57.89;98669.69;5092930;28;19991;-76
2023/11/06 00:02:58;;;;;;;;;;;;;;;17.57;57.92;98675.25;5092789;28;19966;-76
2023/11/06 00:05:23;;;;;;;;;;;;;;;17.57;57.63;98688.59;5092036;28;19916;-76
2023/11/06 00:07:49;;;;;;;;;;;;;;;17.54;57.61;98689.09;5092899;28;19919;-76
2023/11/06 00:10:15;;;;;;;;;;;;;;;17.50;57.61;98697.81;5092779;28;20369;-76
2023/11/06 00:12:40;;;;;;;;;;;;;;;17.46;57.55;98692.97;5092982;28;19912;-76
2023/11/06 00:15:06;;;;;;;;;;;;;;;17.44;57.51;98695.09;5091963;28;19912;-76
2023/11/06 00:17:31;;;;;;;;;;;;;;;17.44;57.38;98700.41;5093189;28;20363;-76
2023/11/06 00:19:56;;;;;;;;;;;;;;;17.44;57.44;98699.63;5092422;28;19912;-76
2023/11/06 00:22:22;;;;;;;;;;;;;;;17.42;57.46;98701.72;5092771;28;19995;-76
2023/11/06 00:24:48;;;;;;;;;;;;;;;17.42;57.26;98701.72;5092670;28;20403;-76
2023/11/06 00:27:13;;;;;;;;;;;;;;;17.38;57.25;98701.38;5091429;28;19951;-75
2023/11/06 00:29:42;;;;;;;;;;;;;;;17.36;57.20;98703.50;5074457;28;19916;-75
2023/11/06 00:32:07;;;;;;;;;;;;;;;17.36;57.17;98716.84;5092522;28;20457;-76
2023/11/06 00:34:32;;;;;;;;;;;;;;;17.35;57.46;98717.88;5093086;28;19912;-76
2023/11/06 00:36:58;;;;;;;;;;;;;;;17.36;57.31;98735.50;5092698;28;20323;-75
2023/11/06 00:39:24;;;;;;;;;;;;;;;17.28;57.18;98738.56;5092701;28;19916;-76
2023/11/06 00:41:49;;;;;;;;;;;;;;;17.27;57.25;98744.16;5092387;28;20007;-75
2023/11/06 00:44:15;;;;;;;;;;;;;;;17.27;57.46;98752.16;5092118;28;19951;-76
2023/11/06 00:46:40;;;;;;;;;;;;;;;17.17;56.99;98747.44;5074092;28;19912;-75
2023/11/06 00:49:05;;;;;;;;;;;;;;;17.04;57.39;98761.06;5073774;28;20354;-77
2023/11/06 00:51:31;;;;;;;;;;;;;;;17.00;57.10;98768.72;5091908;28;19919;-77
2023/11/06 00:53:56;;;;;;;;;;;;;;;16.97;57.29;98782.53;5091961;28;20451;-77
2023/11/06 00:56:21;;;;;;;;;;;;;;;16.94;57.05;98779.53;5091941;28;19919;-78
2023/11/06 00:58:47;;;;;;;;;;;;;;;16.89;57.36;98798.91;5092262;28;19912;-76
2023/11/06 01:01:13;;;;;;;;;;;;;;;16.89;57.51;98798.91;5092180;28;19962;-77
2023/11/06 01:03:38;;;;;;;;;;;;;;;16.83;57.65;98814.00;5090703;28;20049;-77
2023/11/06 01:06:04;;;;;;;;;;;;;;;16.78;57.72;98829.09;5092109;28;19961;-77
2023/11/06 01:08:29;;;;;;;;;;;;;;;16.79;57.81;98844.03;5091939;28;20000;-76
2023/11/06 01:10:55;;;;;;;;;;;;;;;16.80;57.75;98857.13;5092161;28;19919;-76
2023/11/06 01:13:20;;;;;;;;;;;;;;;16.81;57.90;98881.94;5092053;28;19995;-75
2023/11/06 01:15:45;;;;;;;;;;;;;;;16.82;57.89;98896.88;5092110;28;19912;-77
2023/11/06 01:18:11;;;;;;;;;;;;;;;16.84;57.94;98916.13;5092021;28;19989;-77
2023/11/06 01:20:36;;;;;;;;;;;;;;;16.82;57.93;98921.69;5091929;28;19999;-76
2023/11/06 01:23:02;;;;;;;;;;;;;;;16.84;57.86;98926.78;5073708;28;19923;-77
2023/11/06 01:25:28;;;;;;;;;;;;;;;16.85;57.95;98928.41;5091769;28;19913;-76
2023/11/06 01:27:53;;;;;;;;;;;;;;;16.83;57.89;98936.66;5073755;28;19912;-77
2023/11/06 01:30:19;;;;;;;;;;;;;;;16.82;57.69;98935.03;5091758;28;19917;-76
2023/11/06 01:32:44;;;;;;;;;;;;;;;16.80;57.70;98933.63;5094668;28;20312;-76
2023/11/06 01:35:11;;;;;;;;;;;;;;;16.77;57.95;98934.09;5095812;28;20309;-77
2023/11/06 01:37:37;;;;;;;;;;;;;;;16.76;57.95;98935.16;5095879;28;20363;-77
2023/11/06 01:40:06;;;;;;;;;;;;;;;16.77;58.22;98926.09;5094717;28;20011;-76
2023/11/06 01:42:31;;;;;;;;;;;;;;;16.76;57.98;98917.28;5095992;28;20030;-76
2023/11/06 01:44:57;;;;;;;;;;;;;;;16.71;58.14;98919.84;5077720;28;19954;-76
2023/11/06 01:47:24;;;;;;;;;;;;;;;16.64;58.31;98915.66;5094452;28;19916;-76
2023/11/06 01:49:49;;;;;;;;;;;;;;;16.68;58.03;98909.66;5095242;28;20278;-76
2023/11/06 01:52:17;;;;;;;;;;;;;;;16.69;58.26;98910.47;5095674;28;19911;-78
2023/11/06 01:54:42;;;;;;;;;;;;;;;16.69;58.35;98905.94;5077499;28;20012;-76
2023/11/06 01:57:08;;;;;;;;;;;;;;;16.72;58.43;98907.31;5077502;28;19916;-76
2023/11/06 01:59:33;;;;;;;;;;;;;;;16.74;58.55;98905.25;5095867;28;20374;-78
2023/11/06 02:02:01;;;;;;;;;;;;;;;16.77;58.10;98912.78;5095630;28;19912;-76
2023/11/06 02:04:27;;;;;;;;;;;;;;;16.80;58.29;98914.97;5095414;28;19924;-77
2023/11/06 02:06:53;;;;;;;;;;;;;;;16.82;58.05;98915.53;5095370;28;19916;-76
2023/11/06 02:09:18;;;;;;;;;;;;;;;16.83;58.00;98923.31;5095497;28;19916;-76
2023/11/06 02:11:44;;;;;;;;;;;;;;;16.83;58.03;98933.97;5095335;28;19912;-76
2023/11/06 02:14:09;;;;;;;;;;;;;;;16.80;58.21;98947.78;5095534;28;19912;-77
2023/11/06 02:16:34;;;;;;;;;;;;;;;16.72;58.05;98949.97;5095343;28;20425;-76
2023/11/06 02:19:00;;;;;;;;;;;;;;;16.67;58.07;98960.53;5095336;28;19961;-76
2023/11/06 02:21:25;;;;;;;;;;;;;;;16.54;58.73;98961.53;5095195;28;19934;-76
2023/11/06 02:23:50;;;;;;;;;;;;;;;16.39;59.08;98964.66;5095163;28;20324;-76
2023/11/06 02:26:16;;;;;;;;;;;;;;;16.31;59.16;98962.28;5094845;28;19995;-77
2023/11/06 02:28:41;;;;;;;;;;;;;;;16.28;59.40;98968.06;5094978;28;19920;-78
2023/11/06 02:31:07;;;;;;;;;;;;;;;16.29;59.00;98969.69;5094671;28;20451;-76
2023/11/06 02:33:32;;;;;;;;;;;;;;;16.27;59.76;98963.78;5094660;28;20381;-76
2023/11/06 02:35:57;;;;;;;;;;;;;;;16.27;60.08;98963.78;5094380;28;19954;-76
2023/11/06 02:38:22;;;;;;;;;;;;;;;16.30;60.75;98958.00;5094472;28;20590;-75
2023/11/06 02:40:48;;;;;;;;;;;;;;;16.27;60.84;98952.31;5076352;28;19919;-76
2023/11/06 02:43:13;;;;;;;;;;;;;;;16.27;59.78;98949.66;5093795;28;19912;-77
2023/11/06 02:45:38;;;;;;;;;;;;;;;16.21;60.70;98954.03;5094472;28;19999;-77
2023/11/06 02:48:04;;;;;;;;;;;;;;;16.15;60.84;98961.09;5094356;28;20481;-76
2023/11/06 02:50:30;;;;;;;;;;;;;;;16.11;61.50;98959.94;5094029;28;19923;-77
2023/11/06 02:52:56;;;;;;;;;;;;;;;16.11;60.96;98959.13;5094150;28;19919;-77
2023/11/06 02:55:22;;;;;;;;;;;;;;;16.10;60.81;98947.66;5094009;28;19966;-77
2023/11/06 02:57:47;;;;;;;;;;;;;;;16.14;60.91;98950.69;5092727;28;19912;-76
2023/11/06 03:00:12;;;;;;;;;;;;;;;16.16;60.08;98953.91;5092825;28;19968;-76
2023/11/06 03:02:38;;;;;;;;;;;;;;;16.15;60.71;98961.09;5093921;28;19920;-76
2023/11/06 03:05:03;;;;;;;;;;;;;;;16.14;60.29;98969.31;5094051;28;20389;-77
2023/11/06 03:07:30;;;;;;;;;;;;;;;16.18;59.33;98959.84;5094174;28;19912;-76
2023/11/06 03:09:55;;;;;;;;;;;;;;;16.16;60.36;98978.69;5093974;28;20006;-76
2023/11/06 03:12:20;;;;;;;;;;;;;;;16.13;61.13;98986.34;5094049;28;19943;-76
2023/11/06 03:14:45;;;;;;;;;;;;;;;16.16;60.60;98977.88;5093613;28;19916;-76
2023/11/06 03:17:11;;;;;;;;;;;;;;;16.15;60.81;98997.56;5093505;28;20289;-77
2023/11/06 03:19:36;;;;;;;;;;;;;;;16.14;61.30;99003.94;5093777;28;19912;-75
2023/11/06 03:22:01;;;;;;;;;;;;;;;16.15;60.74;98995.72;5093690;28;19916;-77
2023/11/06 03:24:26;;;;;;;;;;;;;;;16.17;60.89;98998.16;5093628;28;19912;-75
2023/11/06 03:26:52;;;;;;;;;;;;;;;16.21;60.87;99004.66;5092717;28;19991;-77
2023/11/06 03:29:17;;;;;;;;;;;;;;;16.22;61.16;99008.94;5094018;28;19916;-76
2023/11/06 03:31:43;;;;;;;;;;;;;;;16.26;61.36;99012.78;5093541;28;19966;-76
2023/11/06 03:34:08;;;;;;;;;;;;;;;16.27;61.68;99024.25;5092216;28;19926;-76
2023/11/06 03:36:39;;;;;;;;;;;;;;;16.28;61.22;99018.69;5093341;28;19912;-76
2023/11/06 03:39:05;;;;;;;;;;;;;;;16.26;62.31;99003.97;5075276;28;19935;-75
2023/11/06 03:41:30;;;;;;;;;;;;;;;16.28;61.52;99010.69;5074895;28;20388;-77
2023/11/06 03:43:56;;;;;;;;;;;;;;;16.30;61.97;99019.28;5093428;28;19983;-75
2023/11/06 03:46:21;;;;;;;;;;;;;;;16.29;61.56;99020.31;5093298;28;19919;-76
2023/11/06 03:48:46;;;;;;;;;;;;;;;16.30;62.38;99024.59;5093141;28;19916;-76
2023/11/06 03:51:11;;;;;;;;;;;;;;;16.31;61.88;99015.56;5075041;28;20493;-76
2023/11/06 03:53:37;;;;;;;;;;;;;;;16.29;62.57;99012.31;5093189;28;19916;-76
2023/11/06 03:56:02;;;;;;;;;;;;;;;16.24;62.26;99004.19;5073880;28;20011;-77
2023/11/06 03:58:28;;;;;;;;;;;;;;;16.19;61.80;99018.19;5091733;28;19916;-76
2023/11/06 04:00:53;;;;;;;;;;;;;;;16.22;62.10;99019.59;5092904;28;19947;-76
2023/11/06 04:03:18;;;;;;;;;;;;;;;16.27;62.16;99024.25;5092945;28;20457;-76
2023/11/06 04:05:44;;;;;;;;;;;;;;;16.28;61.83;99028.53;5093052;28;19943;-76
2023/11/06 04:08:09;;;;;;;;;;;;;;;16.28;62.17;99016.03;5092856;28;19945;-75
2023/11/06 04:10:35;;;;;;;;;;;;;;;16.28;61.91;99020.53;5092721;28;19916;-77
2023/11/06 04:13:00;;;;;;;;;;;;;;;16.31;61.22;99034.22;5092738;28;19965;-76
2023/11/06 04:15:25;;;;;;;;;;;;;;;16.35;61.71;99030.09;5092928;28;19912;-77
2023/11/06 04:17:51;;;;;;;;;;;;;;;16.37;61.68;99041.31;5091510;28;19958;-77
2023/11/06 04:20:16;;;;;;;;;;;;;;;16.38;61.80;99039.47;5092430;28;19912;-77
2023/11/06 04:22:42;;;;;;;;;;;;;;;16.38;61.50;99053.63;5092461;28;19920;-77
2023/11/06 04:25:07;;;;;;;;;;;;;;;16.41;61.72;99053.16;5092535;28;19948;-76
2023/11/06 04:27:33;;;;;;;;;;;;;;;16.43;61.68;99051.06;5092563;28;19923;-78
2023/11/06 04:29:59;;;;;;;;;;;;;;;16.46;61.85;99057.81;5092486;28;19916;-76
2023/11/06 04:32:24;;;;;;;;;;;;;;;16.45;62.46;99064.97;5092461;28;20343;-77
2023/11/06 04:34:49;;;;;;;;;;;;;;;16.46;61.55;99058.63;5092481;28;19912;-75
2023/11/06 04:37:15;;;;;;;;;;;;;;;16.49;61.41;99070.66;5092384;28;20328;-74
2023/11/06 04:39:40;;;;;;;;;;;;;;;16.52;61.50;99067.56;5092185;28;19969;-76
2023/11/06 04:42:09;;;;;;;;;;;;;;;16.54;61.23;99070.81;5092063;28;19916;-77
2023/11/06 04:44:35;;;;;;;;;;;;;;;16.55;61.84;99071.63;5074136;28;19996;-77
2023/11/06 04:47:00;;;;;;;;;;;;;;;16.52;62.11;99075.53;5092112;28;20385;-74
2023/11/06 04:49:25;;;;;;;;;;;;;;;16.48;62.80;99079.72;5091966;28;20004;-78
2023/11/06 04:51:51;;;;;;;;;;;;;;;16.45;62.62;99072.97;5092142;28;19912;-78
2023/11/06 04:54:16;;;;;;;;;;;;;;;16.41;62.84;99086.97;5092054;28;19961;-77
2023/11/06 04:56:42;;;;;;;;;;;;;;;16.42;63.61;99077.94;5092197;28;19912;-74
2023/11/06 04:59:07;;;;;;;;;;;;;;;16.39;62.73;99083.72;5092158;28;19912;-76
2023/11/06 05:01:35;;;;;;;;;;;;;;;16.37;62.94;99081.28;5090731;28;19950;-77
2023/11/06 05:04:00;;;;;;;;;;;;;;;16.37;62.71;99077.81;5092017;28;19943;-75
2023/11/06 05:06:26;;;;;;;;;;;;;;;16.39;62.71;99081.06;5091577;28;20400;-74
2023/11/06 05:08:51;;;;;;;;;;;;;;;16.36;63.05;99082.34;5092116;28;19920;-76
2023/11/06 05:11:16;;;;;;;;;;;;;;;16.37;62.29;99083.97;5090480;28;19919;-76
2023/11/06 05:13:41;;;;;;;;;;;;;;;16.38;62.97;99087.44;5091963;28;19912;-77
2023/11/06 05:16:07;;;;;;;;;;;;;;;16.37;62.96;99104.47;5091865;28;19912;-76
2023/11/06 05:18:32;;;;;;;;;;;;;;;16.35;63.74;99107.34;5090482;28;19969;-77
2023/11/06 05:20:57;;;;;;;;;;;;;;;16.35;63.06;99104.69;5091688;28;19912;-76
2023/11/06 05:23:23;;;;;;;;;;;;;;;16.38;62.64;99109.56;5091605;28;20076;-78
2023/11/06 05:25:48;;;;;;;;;;;;;;;16.40;62.42;99114.66;5091582;28;20373;-76
2023/11/06 05:28:13;;;;;;;;;;;;;;;16.41;62.76;99122.44;5091889;28;20416;-77
2023/11/06 05:30:39;;;;;;;;;;;;;;;16.41;62.83;99127.75;5092115;28;19953;-76
2023/11/06 05:33:05;;;;;;;;;;;;;;;16.39;63.29;99134.34;5091902;28;20312;-77
2023/11/06 05:35:30;;;;;;;;;;;;;;;16.38;63.83;99140.72;5091900;28;19961;-76
2023/11/06 05:37:56;;;;;;;;;;;;;;;16.35;63.83;99155.31;5091692;28;19912;-76
2023/11/06 05:40:21;;;;;;;;;;;;;;;16.34;63.54;99168.81;5091889;28;19912;-77
2023/11/06 05:42:47;;;;;;;;;;;;;;;16.36;63.29;99158.78;5091730;28;19916;-76
2023/11/06 05:45:14;;;;;;;;;;;;;;;16.36;63.08;99166.78;5091905;28;20028;-75
2023/11/06 05:47:40;;;;;;;;;;;;;;;16.38;62.63;99176.19;5091790;28;19919;-75
2023/11/06 05:50:06;;;;;;;;;;;;;;;16.37;62.91;99177.22;5073649;28;19979;-75
2023/11/06 05:52:32;;;;;;;;;;;;;;;16.38;63.48;99181.50;5091557;28;19912;-76
2023/11/06 05:54:57;;;;;;;;;;;;;;;16.39;63.14;99183.13;5091812;28;19912;-75
2023/11/06 05:57:23;;;;;;;;;;;;;;;16.43;62.66;99194.97;5091993;28;20281;-75
2023/11/06 05:59:48;;;;;;;;;;;;;;;16.46;63.26;99199.84;5091676;28;19959;-76
2023/11/06 06:02:13;;;;;;;;;;;;;;;16.49;63.00;99199.41;5073429;28;19915;-75
2023/11/06 06:04:39;;;;;;;;;;;;;;;16.51;63.58;99207.16;5073370;28;19921;-75
2023/11/06 06:07:07;;;;;;;;;;;;;;;16.50;63.52;99200.22;5091533;28;19919;-75
2023/11/06 06:09:32;;;;;;;;;;;;;;;16.55;62.79;99210.19;5090507;28;19990;-75
2023/11/06 06:11:58;;;;;;;;;;;;;;;16.59;62.88;99216.72;5091388;28;19916;-75
2023/11/06 06:14:24;;;;;;;;;;;;;;;16.64;62.35;99216.84;5091205;28;19923;-77
2023/11/06 06:16:49;;;;;;;;;;;;;;;16.70;62.15;99221.31;5091167;28;19946;-76
2023/11/06 06:19:18;;;;;;;;;;;;;;;16.75;62.31;99218.78;5092778;28;19995;-77
2023/11/06 06:21:44;;;;;;;;;;;;;;;16.80;62.18;99218.91;5076603;28;20328;-76
2023/11/06 06:24:09;;;;;;;;;;;;;;;16.86;61.83;99225.19;5094471;28;19912;-76
2023/11/06 06:26:36;;;;;;;;;;;;;;;16.92;61.52;99221.63;5094853;28;19912;-76
2023/11/06 06:29:02;;;;;;;;;;;;;;;16.99;60.94;99225.00;5094691;28;19916;-76
2023/11/06 06:31:27;;;;;;;;;;;;;;;17.03;61.02;99216.31;5094942;28;20304;-76
2023/11/06 06:33:52;;;;;;;;;;;;;;;17.07;61.15;99212.16;5093392;28;19916;-77
2023/11/06 06:36:18;;;;;;;;;;;;;;;17.13;60.96;99221.94;5094574;28;19988;-76
2023/11/06 06:38:43;;;;;;;;;;;;;;;17.20;60.80;99223.69;5094517;28;19912;-76
2023/11/06 06:41:08;;;;;;;;;;;;;;;17.25;61.06;99223.81;5094589;28;19920;-76
2023/11/06 06:43:34;;;;;;;;;;;;;;;17.29;60.61;99246.34;5075761;28;19962;-75
2023/11/06 06:46:00;;;;;;;;;;;;;;;17.34;60.31;99239.28;5074244;28;19921;-76
2023/11/06 06:48:25;;;;;;;;;;;;;;;17.39;60.05;99251.94;5073996;28;19935;-75
2023/11/06 06:50:50;;;;;;;;;;;;;;;17.46;59.93;99252.63;5074269;28;20014;-76
2023/11/06 06:53:15;;;;;;;;;;;;;;;17.53;59.67;99253.34;5084643;28;20022;-75
2023/11/06 06:55:41;;;;;;;;;;;;;;;17.61;59.86;99260.19;5093122;28;20377;-76
2023/11/06 06:58:06;;;;;;;;;;;;;;;17.68;59.55;99264.41;5094247;28;19960;-75
2023/11/06 07:00:35;;;;;;;;;;;;;;;17.77;59.37;99276.38;5090375;28;19916;-76
2023/11/06 07:03:05;;;;;;;;;;;;;;;17.85;59.60;99272.59;5073116;28;19920;-76
2023/11/06 07:05:30;;;;;;;;;;;;;;;17.93;59.17;99290.13;5093844;28;19919;-76
2023/11/06 07:07:55;;;;;;;;;;;;;;;18.00;59.46;99286.28;5094047;28;20317;-76
2023/11/06 07:10:21;;;;;;;;;;;;;;;18.10;58.79;99294.53;5092547;28;19916;-74
2023/11/06 07:12:46;;;;;;;;;;;;;;;18.19;58.15;99289.66;5077397;28;19916;-75
2023/11/06 07:15:11;;;;;;;;;;;;;;;18.28;57.98;99290.13;5073713;28;20009;-75
2023/11/06 07:17:37;;;;;;;;;;;;;;;18.39;57.76;99295.44;5073580;28;20398;-74
2023/11/06 07:20:03;;;;;;;;;;;;;;;18.52;57.57;99305.06;5073686;28;19951;-76
2023/11/06 07:22:28;;;;;;;;;;;;;;;18.64;57.14;99305.09;5070866;28;20337;-75
2023/11/06 07:24:54;;;;;;;;;;;;;;;18.74;56.75;99302.63;5092195;28;19919;-74
2023/11/06 07:27:21;;;;;;;;;;;;;;;18.85;56.27;99293.75;5074859;28;19916;-74
2023/11/06 07:29:46;;;;;;;;;;;;;;;18.94;56.00;99296.88;5075206;28;19917;-74
2023/11/06 07:32:11;;;;;;;;;;;;;;;19.03;55.75;99290.09;5062822;28;19966;-73
2023/11/06 07:34:36;;;;;;;;;;;;;;;19.13;55.49;99294.81;5055344;28;19912;-76
2023/11/06 07:37:02;;;;;;;;;;;;;;;19.19;55.71;99304.56;5071985;28;19954;-75
2023/11/06 07:39:27;;;;;;;;;;;;;;;19.21;55.26;99294.44;5073485;28;20310;-73
2023/11/06 07:41:53;;;;;;;;;;;;;;;19.21;55.79;99303.28;5093111;28;19998;-76
2023/11/06 07:44:18;;;;;;;;;;;;;;;19.22;56.03;99302.22;5082365;28;20382;-75
2023/11/06 07:46:43;;;;;;;;;;;;;;;19.22;56.33;99302.22;5089446;28;20358;-76
2023/11/06 07:49:08;;;;;;;;;;;;;;;19.21;56.07;99307.81;5092779;28;19917;-77
2023/11/06 07:51:34;;;;;;;;;;;;;;;19.20;56.28;99308.88;5073128;28;19931;-76
2023/11/06 07:53:59;;;;;;;;;;;;;;;19.20;56.06;99303.50;5093100;28;20418;-75
2023/11/06 07:56:24;;;;;;;;;;;;;;;19.19;56.72;99304.56;5085337;28;19923;-77
2023/11/06 07:58:49;;;;;;;;;;;;;;;19.18;56.44;99313.66;5086268;28;19917;-76
2023/11/06 08:01:16;;;;;;;;;;;;;;;19.15;57.39;99308.78;5074537;28;19932;-76
2023/11/06 08:03:41;;;;;;;;;;;;;;;19.12;58.48;99319.97;5092425;28;20000;-75
2023/11/06 08:06:07;;;;;;;;;;;;;;;19.07;58.56;99315.31;5087285;28;19917;-76
2023/11/06 08:08:32;;;;;;;;;;;;;;;19.02;58.67;99316.03;5092773;28;19904;-77
2023/11/06 08:10:57;;;;;;;;;;;;;;;19.00;58.39;99323.50;5092591;28;19912;-76
2023/11/06 08:13:23;;;;;;;;;;;;;;;18.96;58.55;99316.19;5072719;28;19916;-78
2023/11/06 08:15:48;;;;;;;;;;;;;;;18.90;58.84;99325.97;5054363;28;19964;-77
2023/11/06 08:18:13;;;;;;;;;;;;;;;18.88;59.50;99324.56;5085643;28;19923;-77
2023/11/06 08:20:39;;;;;;;;;;;;;;;18.86;59.05;99334.69;5083495;28;19923;-77
2023/11/06 08:23:04;;;;;;;;;;;;;;;18.83;58.32;99343.19;5087731;28;19947;-76
2023/11/06 08:25:31;;;;;;;;;;;;;;;18.79;57.93;99334.03;5090087;28;20358;-76
2023/11/06 08:27:57;;;;;;;;;;;;;;;18.77;57.97;99346.81;5082926;28;19958;-77
2023/11/06 08:30:23;;;;;;;;;;;;;;;18.75;57.64;99347.06;5076660;28;19960;-76
2023/11/06 08:32:48;;;;;;;;;;;;;;;18.75;57.81;99348.91;5074926;28;21491;-76
2023/11/06 08:35:13;;;;;;;;;;;;;;;18.81;57.94;99350.66;5090201;28;20016;-76
2023/11/06 08:37:39;;;;;;;;;;;;;;;18.89;57.70;99360.97;5092172;28;19957;-76
2023/11/06 08:40:05;;;;;;;;;;;;;;;18.94;57.45;99353.88;5086775;28;19920;-77
2023/11/06 08:42:30;;;;;;;;;;;;;;;18.98;57.29;99348.84;5084105;28;19920;-74
2023/11/06 08:44:55;;;;;;;;;;;;;;;19.03;57.08;99356.97;5089045;28;20408;-75
2023/11/06 08:47:21;;;;;;;;;;;;;;;19.11;56.91;99353.13;5072917;28;20313;-75
2023/11/06 08:49:46;;;;;;;;;;;;;;;19.21;56.66;99347.97;5053566;28;19920;-75
2023/11/06 08:52:12;;;;;;;;;;;;;;;19.34;56.30;99345.03;5071551;28;20380;-76
2023/11/06 08:54:39;;;;;;;;;;;;;;;19.43;56.17;99350.81;5053704;28;20387;-76
2023/11/06 08:57:04;;;;;;;;;;;;;;;19.53;56.15;99345.66;5081252;28;19923;-76
2023/11/06 08:59:29;;;;;;;;;;;;;;;19.64;55.75;99350.16;5083664;28;20351;-75
2023/11/06 09:01:55;;;;;;;;;;;;;;;19.77;55.34;99340.97;5081010;28;19923;-76
2023/11/06 09:04:20;;;;;;;;;;;;;;;19.89;54.98;99344.41;5076072;28;20006;-76
2023/11/06 09:06:48;;;;;;;;;;;;;;;20.01;53.51;99355.84;5090509;28;20373;-75
2023/11/06 09:09:15;;;;;;;;;;;;;;;20.13;49.84;99350.44;5085122;28;19928;-76
2023/11/06 09:11:40;;;;;;;;;;;;;;;20.26;52.31;99348.22;5082329;28;19931;-75
2023/11/06 09:14:07;;;;;;;;;;;;;;;20.37;48.46;99353.72;5080326;28;19916;-76
2023/11/06 09:16:33;;;;;;;;;;;;;;;20.49;49.76;99344.56;5080771;28;20412;-74
2023/11/06 09:18:58;;;;;;;;;;;;;;;20.62;50.20;99348.75;5085472;28;19916;-76
2023/11/06 09:21:24;;;;;;;;;;;;;;;20.73;49.12;99352.38;5079584;28;19919;-76
2023/11/06 09:23:49;;;;;;;;;;;;;;;20.80;47.89;99350.31;5074452;28;20431;-76
2023/11/06 09:26:15;;;;;;;;;;;;;;;20.87;48.29;99342.91;5079635;28;19923;-76
2023/11/06 09:28:40;;;;;;;;;;;;;;;20.95;48.16;99353.22;5074040;28;19948;-76
2023/11/06 09:31:05;;;;;;;;;;;;;;;21.04;46.46;99346.34;5073601;28;19976;-76
2023/11/06 09:33:30;;;;;;;;;;;;;;;21.12;49.73;99345.91;5086723;28;19920;-76
2023/11/06 09:35:56;;;;;;;;;;;;;;;21.22;48.25;99350.56;5082120;28;19917;-75
2023/11/06 09:38:23;;;;;;;;;;;;;;;21.30;43.57;99349.34;5083647;28;19973;-76
2023/11/06 09:40:48;;;;;;;;;;;;;;;21.40;47.63;99344.88;5075665;28;19923;-75
2023/11/06 09:43:13;;;;;;;;;;;;;;;21.48;45.20;99344.44;5074714;28;19924;-75
2023/11/06 09:45:39;;;;;;;;;;;;;;;21.58;45.04;99346.44;5074679;28;20381;-76
2023/11/06 09:48:08;;;;;;;;;;;;;;;21.66;45.46;99353.22;5082878;28;20729;-75
2023/11/06 09:50:34;;;;;;;;;;;;;;;21.75;42.95;99352.50;5059745;28;20020;-76
2023/11/06 09:52:59;;;;;;;;;;;;;;;21.87;44.07;99352.31;5075507;28;20011;-77
2023/11/06 09:55:26;;;;;;;;;;;;;;;21.93;39.86;99339.75;5079091;28;19921;-77
2023/11/06 09:57:52;;;;;;;;;;;;;;;21.97;42.68;99346.22;5087508;28;20007;-76
2023/11/06 10:00:18;;;;;;;;;;;;;;;21.98;40.49;99343.28;5077541;28;19951;-78
2023/11/06 10:02:48;;;;;;;;;;;;;;;22.03;42.63;99345.22;5084379;28;19920;-74
2023/11/06 10:05:15;;;;;;;;;;;;;;;22.07;43.85;99341.75;5058094;28;19916;-76
2023/11/06 10:07:45;;;;;;;;;;;;;;;22.09;41.94;99339.63;5079451;28;20317;-75
2023/11/06 10:10:14;;;;;;;;;;;;;;;22.13;43.88;99345.28;5062986;28;19966;-76
2023/11/06 10:12:40;;;;;;;;;;;;;;;22.12;39.59;99344.50;5083245;28;19955;-76
2023/11/06 10:15:06;;;;;;;;;;;;;;;22.15;41.79;99353.91;5083879;28;19963;-76
2023/11/06 10:17:33;;;;;;;;;;;;;;;22.18;40.86;99338.06;5089701;28;20005;-76
2023/11/06 10:20:00;;;;;;;;;;;;;;;22.23;40.31;99333.81;5086281;28;20399;-76
2023/11/06 10:22:26;;;;;;;;;;;;;;;22.25;40.55;99342.41;5089233;28;19913;-75
2023/11/06 10:24:53;;;;;;;;;;;;;;;22.27;39.21;99326.84;5056465;28;19920;-77
2023/11/06 10:27:23;;;;;;;;;;;;;;;22.30;39.79;99337.91;5064394;28;20317;-75
2023/11/06 10:29:59;;;;;;;;;;;;;;;22.36;42.22;99325.31;5079975;28;19959;-76
2023/11/06 10:32:26;;;;;;;;;;;;;;;22.38;39.15;99331.22;5092440;28;20401;-77
2023/11/06 10:34:51;;;;;;;;;;;;;;;22.40;38.04;99335.28;5094300;28;19953;-76
2023/11/06 10:37:16;;;;;;;;;;;;;;;22.44;40.18;99332.88;5089644;28;19986;-77
2023/11/06 10:39:52;;;;;;;;;;;;;;;22.43;35.67;99339.34;5062033;28;20464;-77
2023/11/06 10:42:24;;;;;;;;;;;;;;;22.42;38.05;99337.72;5089705;28;19965;-76
2023/11/06 10:44:56;;;;;;;;;;;;;;;22.44;39.83;99336.38;5086733;28;19920;-77
2023/11/06 10:47:45;;;;;;;;;;;;;;;22.41;37.61;99334.22;5090512;28;19919;-77
2023/11/06 10:50:13;;;;;;;;;;;;;;;22.41;39.59;99342.28;5068824;28;19920;-76
2023/11/06 10:52:39;;;;;;;;;;;;;;;22.39;39.86;99332.84;5088710;28;19912;-77
2023/11/06 10:55:07;;;;;;;;;;;;;;;22.38;38.18;99336.63;5073984;28;19923;-77
2023/11/06 10:57:33;;;;;;;;;;;;;;;22.37;38.87;99338.50;5078540;28;19990;-77
2023/11/06 11:00:07;;;;;;;;;;;;;;;22.34;39.04;99339.00;5064694;28;20333;-77
2023/11/06 11:02:48;;;;;;;;;;;;;;;22.31;38.65;99328.78;5091072;28;20002;-76
2023/11/06 11:05:18;;;;;;;;;;;;;;;22.31;36.33;99326.09;5071741;28;19916;-77
2023/11/06 11:07:46;;;;;;;;;;;;;;;22.31;40.60;99322.59;5066628;28;19920;-75
2023/11/06 11:10:14;;;;;;;;;;;;;;;22.29;37.54;99317.44;5084271;28;19920;-76
2023/11/06 11:12:40;;;;;;;;;;;;;;;22.28;38.78;99320.38;5073555;28;19919;-76
2023/11/06 11:15:06;;;;;;;;;;;;;;;22.29;40.41;99327.38;5077387;28;20305;-75
2023/11/06 11:17:32;;;;;;;;;;;;;;;22.28;38.45;99328.44;5055270;28;20011;-78
2023/11/06 11:20:03;;;;;;;;;;;;;;;22.27;40.02;99318.75;5072826;28;20301;-77
2023/11/06 11:22:31;;;;;;;;;;;;;;;22.24;40.27;99327.34;5076523;28;19916;-75
2023/11/06 11:24:59;;;;;;;;;;;;;;;22.23;38.71;99309.59;5073267;28;19935;-77
2023/11/06 11:27:26;;;;;;;;;;;;;;;22.21;39.41;99326.00;5084227;28;19920;-76
2023/11/06 11:29:54;;;;;;;;;;;;;;;21.61;40.04;99224.22;5081379;28;20390;-75
2023/11/06 11:32:47;;;;;;;;;;;;;;;22.18;40.81;99311.19;5074304;28;19924;-77
2023/11/06 11:35:17;;;;;;;;;;;;;;;22.18;39.92;99316.56;5082564;28;20343;-77
2023/11/06 11:37:59;;;;;;;;;;;;;;;22.18;40.97;99321.94;5069008;28;19962;-76
2023/11/06 11:40:40;;;;;;;;;;;;;;;22.17;39.56;99314.94;5081966;28;20397;-76
2023/11/06 11:43:24;;;;;;;;;;;;;;;22.22;40.23;99316.03;5073209;28;19916;-76
2023/11/06 11:45:50;;;;;;;;;;;;;;;22.24;39.37;99316.59;5085713;28;19916;-77
2023/11/06 11:48:15;;;;;;;;;;;;;;;22.24;38.74;99306.66;5092323;28;20324;-76
2023/11/06 11:50:41;;;;;;;;;;;;;;;22.28;40.28;99318.50;5075381;28;19921;-77
2023/11/06 11:53:07;;;;;;;;;;;;;;;22.29;40.17;99314.75;5081714;28;20389;-77
2023/11/06 11:55:39;;;;;;;;;;;;;;;22.29;38.88;99312.06;5083079;28;19921;-77
2023/11/06 11:58:09;;;;;;;;;;;;;;;22.32;39.49;99324.19;5054682;28;19962;-77
2023/11/06 12:00:36;;;;;;;;;;;;;;;22.36;38.84;99314.53;5054562;28;19917;-78
2023/11/06 12:03:05;;;;;;;;;;;;;;;22.43;39.53;99312.44;5072581;28;19928;-76
2023/11/06 12:05:31;;;;;;;;;;;;;;;22.50;39.51;99313.00;5080526;28;20420;-75
2023/11/06 12:07:56;;;;;;;;;;;;;;;22.55;38.48;99312.22;5082420;28;19916;-75
2023/11/06 12:10:28;;;;;;;;;;;;;;;22.57;39.43;99313.56;5072397;28;20011;-77
2023/11/06 12:12:58;;;;;;;;;;;;;;;22.55;36.48;99312.22;5083840;28;20492;-76
2023/11/06 12:15:33;;;;;;;;;;;;;;;22.49;36.70;99308.69;5087813;28;19920;-77
2023/11/06 12:18:15;;;;;;;;;;;;;;;22.43;37.21;99313.25;5071587;28;19916;-77
2023/11/06 12:20:41;;;;;;;;;;;;;;;22.43;37.96;99312.44;5077123;28;19920;-76
2023/11/06 12:23:07;;;;;;;;;;;;;;;22.43;38.50;99307.84;5077807;28;20337;-77
2023/11/06 12:25:37;;;;;;;;;;;;;;;22.45;39.55;99312.97;5083667;28;19917;-77
2023/11/06 12:28:06;;;;;;;;;;;;;;;22.45;40.42;99305.72;5090642;28;19925;-76
2023/11/06 12:30:32;;;;;;;;;;;;;;;22.46;40.04;99311.91;5059642;28;19928;-78
2023/11/06 12:33:21;;;;;;;;;;;;;;;22.46;40.67;99318.09;5084716;28;19916;-75
2023/11/06 12:35:47;;;;;;;;;;;;;;;22.47;38.59;99314.34;5091869;28;20000;-77
2023/11/06 12:38:13;;;;;;;;;;;;;;;22.54;38.40;99311.41;5077161;28;20007;-75
2023/11/06 12:40:44;;;;;;;;;;;;;;;22.58;39.59;99323.28;5054005;28;19948;-74
2023/11/06 12:43:11;;;;;;;;;;;;;;;22.59;37.67;99322.19;5078885;28;19916;-75